createdAt,value
2019-04-27T00:01:05.288Z,71.92
2019-04-27T00:03:10.201Z,71.55
2019-04-27T00:05:46.556Z,71.42
2019-04-27T00:07:57.953Z,71.38
2019-04-27T00:10:00.546Z,71.43
2019-04-27T00:12:07.657Z,71.50
2019-04-27T00:14:10.320Z,71.29
2019-04-27T00:16:31.787Z,70.98
2019-04-27T00:18:55.875Z,71.29
2019-04-27T00:21:18.367Z,71.57
2019-04-27T00:23:23.607Z,71.79
2019-04-27T00:25:27.016Z,71.95
2019-04-27T00:27:28.765Z,71.74
2019-04-27T00:29:30.810Z,71.59
2019-04-27T00:31:33.662Z,71.54
2019-04-27T00:33:35.646Z,71.47
2019-04-27T00:35:49.822Z,70.92
2019-04-27T00:38:13.048Z,70.96
2019-04-27T00:40:19.334Z,71.05
2019-04-27T00:42:21.219Z,70.32
2019-04-27T00:44:23.687Z,69.54
2019-04-27T00:46:25.855Z,69.45
2019-04-27T00:48:27.861Z,69.68
2019-04-27T00:50:29.687Z,69.69
2019-04-27T00:52:32.611Z,69.23
2019-04-27T00:54:35.421Z,68.65
2019-04-27T00:56:55.352Z,68.63
2019-04-27T00:59:14.934Z,69.04
2019-04-27T01:01:43.606Z,68.20
2019-04-27T01:03:55.154Z,68.75
2019-04-27T01:05:57.269Z,68.53
2019-04-27T01:07:59.216Z,68.11
2019-04-27T01:10:03.007Z,68.26
2019-04-27T01:12:05.405Z,67.73
2019-04-27T01:14:07.322Z,67.81
2019-04-27T01:16:10.449Z,68.52
2019-04-27T01:18:15.407Z,68.48
2019-04-27T01:20:18.474Z,68.59
2019-04-27T01:22:20.313Z,68.58
2019-04-27T01:24:22.315Z,69.14
2019-04-27T01:26:38.812Z,69.16
2019-04-27T01:28:49.042Z,68.80
2019-04-27T01:30:54.037Z,68.52
2019-04-27T01:32:55.715Z,68.96
2019-04-27T01:34:59.104Z,69.07
2019-04-27T01:37:01.657Z,68.96
2019-04-27T01:39:08.480Z,68.35
2019-04-27T01:41:10.252Z,68.78
2019-04-27T01:43:12.030Z,69.46
2019-04-27T01:45:13.891Z,68.89
2019-04-27T01:47:15.965Z,69.11
2019-04-27T01:49:19.401Z,69.10
2019-04-27T01:51:21.232Z,69.14
2019-04-27T01:53:22.978Z,69.19
2019-04-27T01:55:24.981Z,69.11
2019-04-27T01:57:26.980Z,69.43
2019-04-27T01:59:30.024Z,69.73
2019-04-27T02:01:50.040Z,69.65
2019-04-27T02:04:02.487Z,69.86
2019-04-27T02:06:04.189Z,69.81
2019-04-27T02:08:05.860Z,70.30
2019-04-27T02:10:08.998Z,70.45
2019-04-27T02:12:11.365Z,70.50
2019-04-27T02:14:13.410Z,70.26
2019-04-27T02:16:15.286Z,70.67
2019-04-27T02:18:19.311Z,70.64
2019-04-27T02:21:18.900Z,70.23
2019-04-27T02:23:21.255Z,70.26
2019-04-27T02:25:23.144Z,70.51
2019-04-27T02:27:28.667Z,69.75
2019-04-27T02:29:56.499Z,69.39
2019-04-27T02:32:20.173Z,69.42
2019-04-27T02:34:23.658Z,69.68
2019-04-27T02:36:25.556Z,69.56
2019-04-27T02:38:27.434Z,69.49
2019-04-27T02:40:51.009Z,69.26
2019-04-27T02:42:54.627Z,69.18
2019-04-27T02:44:56.522Z,69.09
2019-04-27T02:47:00.288Z,69.05
2019-04-27T02:49:06.427Z,68.20
2019-04-27T02:51:09.917Z,68.32
2019-04-27T02:53:11.662Z,68.59
2019-04-27T02:55:13.313Z,68.35
2019-04-27T02:57:15.255Z,68.67
2019-04-27T02:59:19.675Z,68.94
2019-04-27T03:01:21.942Z,70.20
2019-04-27T03:03:23.719Z,70.75
2019-04-27T03:05:25.632Z,71.10
2019-04-27T03:07:30.239Z,71.21
2019-04-27T03:09:32.342Z,71.22
2019-04-27T03:11:34.173Z,70.43
2019-04-27T03:13:42.580Z,71.28
2019-04-27T03:16:07.035Z,72.04
2019-04-27T03:18:34.513Z,71.77
2019-04-27T03:20:41.959Z,72.16
2019-04-27T03:22:46.820Z,73.56
2019-04-27T03:25:20.559Z,74.38
2019-04-27T03:27:24.120Z,75.68
2019-04-27T03:29:26.218Z,77.94
2019-04-27T03:31:32.336Z,77.72
2019-04-27T03:33:32.915Z,78.30
2019-04-27T03:35:36.479Z,78.17
2019-04-27T03:37:40.404Z,78.57
2019-04-27T03:39:42.335Z,80.41
2019-04-27T03:41:44.168Z,80.30
2019-04-27T03:43:45.813Z,80.47
2019-04-27T03:45:51.775Z,80.91
2019-04-27T03:47:51.251Z,81.58
2019-04-27T03:49:54.211Z,82.65
2019-04-27T03:52:09.646Z,82.87
2019-04-27T03:54:40.256Z,83.63
2019-04-27T03:56:44.819Z,84.98
2019-04-27T03:58:51.642Z,84.19
2019-04-27T04:00:53.627Z,85.04
2019-04-27T04:02:55.546Z,84.81
2019-04-27T04:04:59.604Z,84.99
2019-04-27T04:07:12.192Z,85.19
2019-04-27T04:09:14.076Z,85.68
2019-04-27T04:11:24.497Z,86.02
2019-04-27T04:13:30.843Z,85.99
2019-04-27T04:15:55.101Z,86.11
2019-04-27T04:17:59.391Z,86.30
2019-04-27T04:20:01.912Z,86.87
2019-04-27T04:22:03.904Z,86.54
2019-04-27T04:24:05.606Z,86.40
2019-04-27T04:26:09.743Z,86.42
2019-04-27T04:29:53.661Z,87.00
2019-04-27T04:31:55.315Z,86.94
2019-04-27T04:33:59.514Z,86.84
2019-04-27T04:36:00.653Z,87.47
2019-04-27T04:38:02.558Z,87.68
2019-04-27T04:40:04.391Z,87.84
2019-04-27T04:42:29.959Z,87.30
2019-04-27T04:44:46.566Z,87.90
2019-04-27T04:47:15.608Z,88.34
2019-04-27T04:49:19.421Z,88.67
2019-04-27T04:51:21.094Z,89.00
2019-04-27T04:53:23.155Z,89.12
2019-04-27T04:55:24.952Z,88.69
2019-04-27T04:57:26.592Z,88.48
2019-04-27T04:59:29.126Z,87.91
2019-04-27T05:01:31.261Z,87.91
2019-04-27T05:03:33.180Z,87.66
2019-04-27T05:05:35.024Z,87.05
2019-04-27T05:07:38.628Z,87.10
2019-04-27T05:09:40.632Z,87.31
2019-04-27T05:11:42.406Z,86.77
2019-04-27T05:13:44.344Z,86.74
2019-04-27T05:15:46.130Z,86.26
2019-04-27T05:17:48.366Z,86.36
2019-04-27T05:19:52.259Z,86.27
2019-04-27T05:21:53.926Z,85.90
2019-04-27T05:23:55.628Z,86.21
2019-04-27T05:25:59.190Z,85.72
2019-04-27T05:28:01.020Z,85.56
2019-04-27T05:30:03.783Z,85.29
2019-04-27T05:32:05.735Z,85.03
2019-04-27T05:34:09.518Z,84.96
2019-04-27T05:36:11.395Z,85.04
2019-04-27T05:38:13.646Z,85.00
2019-04-27T05:40:15.462Z,84.01
2019-04-27T05:42:20.008Z,84.00
2019-04-27T05:44:35.083Z,84.69
2019-04-27T05:47:05.317Z,83.84
2019-04-27T05:49:09.683Z,83.16
2019-04-27T05:51:11.579Z,83.96
2019-04-27T05:53:13.538Z,83.45
2019-04-27T05:55:15.416Z,84.02
2019-04-27T05:57:17.305Z,83.83
2019-04-27T05:59:19.946Z,83.83
2019-04-27T06:01:21.688Z,83.58
2019-04-27T06:03:23.619Z,83.28
2019-04-27T06:05:25.555Z,83.49
2019-04-27T06:07:29.414Z,83.69
2019-04-27T06:09:31.211Z,83.32
2019-04-27T06:11:32.983Z,82.89
2019-04-27T06:13:35.234Z,82.70
2019-04-27T06:15:36.897Z,82.57
2019-04-27T06:17:38.830Z,83.22
2019-04-27T06:19:43.771Z,83.72
2019-04-27T06:21:44.397Z,82.24
2019-04-27T06:23:46.249Z,82.07
2019-04-27T06:25:49.215Z,78.87
2019-04-27T06:27:51.290Z,78.16
2019-04-27T06:29:53.279Z,77.87
2019-04-27T06:31:55.480Z,76.88
2019-04-27T06:33:57.227Z,76.37
2019-04-27T06:36:01.756Z,75.63
2019-04-27T06:38:03.826Z,75.79
2019-04-27T06:40:06.151Z,74.86
2019-04-27T06:42:16.687Z,75.34
2019-04-27T06:44:11.584Z,74.48
2019-04-27T06:46:13.313Z,74.23
2019-04-27T06:48:15.382Z,73.37
2019-04-27T06:50:17.178Z,72.38
2019-04-27T06:52:19.058Z,72.33
2019-04-27T06:54:21.543Z,72.81
2019-04-27T06:56:22.995Z,70.93
2019-04-27T06:58:24.773Z,71.69
2019-04-27T07:00:26.671Z,70.38
2019-04-27T07:02:29.234Z,70.41
2019-04-27T07:04:31.206Z,69.86
2019-04-27T07:06:32.955Z,72.04
2019-04-27T07:08:34.863Z,69.99
2019-04-27T07:10:39.030Z,71.81
2019-04-27T07:12:41.183Z,71.77
2019-04-27T07:14:52.416Z,70.00
2019-04-27T07:16:46.912Z,68.95
2019-04-27T07:18:50.368Z,69.12
2019-04-27T07:20:52.640Z,69.40
2019-04-27T07:22:54.566Z,70.38
2019-04-27T07:24:56.475Z,68.77
2019-04-27T07:26:59.694Z,70.24
2019-04-27T07:29:01.652Z,70.27
2019-04-27T07:31:03.647Z,69.08
2019-04-27T07:33:05.740Z,67.27
2019-04-27T07:35:07.371Z,67.95
2019-04-27T07:37:11.088Z,69.67
2019-04-27T07:39:13.117Z,67.12
2019-04-27T07:41:15.250Z,64.13
2019-04-27T07:43:29.308Z,63.97
2019-04-27T07:45:34.644Z,63.36
2019-04-27T07:47:36.957Z,61.39
2019-04-27T07:49:39.166Z,63.34
2019-04-27T07:51:41.248Z,61.06
2019-04-27T07:53:43.006Z,60.98
2019-04-27T07:55:44.757Z,60.81
2019-04-27T07:57:46.962Z,61.22
2019-04-27T07:59:50.154Z,60.67
2019-04-27T08:01:52.142Z,60.74
2019-04-27T08:03:54.028Z,61.59
2019-04-27T08:05:55.681Z,62.16
2019-04-27T08:07:57.315Z,62.41
2019-04-27T08:10:01.702Z,62.40
2019-04-27T08:12:03.059Z,61.00
2019-04-27T08:14:05.449Z,63.49
2019-04-27T08:16:09.183Z,62.47
2019-04-27T08:18:10.959Z,62.01
2019-04-27T08:20:12.783Z,63.53
2019-04-27T08:22:14.708Z,62.73
2019-04-27T08:24:16.683Z,61.82
2019-04-27T08:26:26.434Z,60.40
2019-04-27T08:28:41.537Z,62.05
2019-04-27T08:30:58.555Z,59.64
2019-04-27T08:33:03.594Z,59.60
2019-04-27T08:35:05.929Z,60.38
2019-04-27T08:37:09.159Z,59.23
2019-04-27T08:39:11.477Z,60.01
2019-04-27T08:41:14.543Z,59.04
2019-04-27T08:43:16.310Z,59.22
2019-04-27T08:45:19.588Z,62.51
2019-04-27T08:47:21.625Z,66.61
2019-04-27T08:49:23.470Z,67.52
2019-04-27T08:51:25.203Z,68.42
2019-04-27T08:53:26.966Z,69.64
2019-04-27T08:55:29.438Z,69.10
2019-04-27T08:57:31.648Z,68.35
2019-04-27T08:59:33.568Z,70.36
2019-04-27T09:01:35.893Z,70.23
2019-04-27T09:03:39.380Z,68.00
2019-04-27T09:05:41.671Z,69.16
2019-04-27T09:08:02.956Z,65.64
2019-04-27T09:10:09.776Z,66.99
2019-04-27T09:12:29.963Z,61.15
2019-04-27T09:14:40.757Z,62.13
2019-04-27T09:17:09.678Z,62.95
2019-04-27T09:19:23.377Z,62.99
2019-04-27T09:21:27.135Z,60.84
2019-04-27T09:23:28.885Z,58.18
2019-04-27T09:25:30.644Z,58.25
2019-04-27T09:27:32.322Z,58.16
2019-04-27T09:29:34.238Z,58.00
2019-04-27T09:31:35.903Z,58.81
2019-04-27T09:33:37.636Z,56.12
2019-04-27T09:35:39.511Z,55.52
2019-04-27T09:37:41.582Z,55.66
2019-04-27T09:39:43.572Z,54.60
2019-04-27T09:41:46.012Z,53.94
2019-04-27T09:43:49.128Z,53.89
2019-04-27T09:45:51.005Z,56.41
2019-04-27T09:47:53.005Z,56.80
2019-04-27T09:50:39.238Z,57.25
2019-04-27T09:52:41.665Z,58.53
2019-04-27T09:54:43.568Z,55.49
2019-04-27T09:56:46.771Z,55.70
2019-04-27T09:58:48.874Z,57.16
2019-04-27T10:00:50.669Z,56.29
2019-04-27T10:02:53.193Z,57.26
2019-04-27T10:04:56.499Z,54.37
2019-04-27T10:06:58.451Z,54.86
2019-04-27T10:09:00.517Z,54.81
2019-04-27T10:11:02.261Z,53.56
2019-04-27T10:13:04.644Z,52.81
2019-04-27T10:15:07.279Z,53.59
2019-04-27T10:17:09.481Z,54.32
2019-04-27T10:19:11.897Z,54.71
2019-04-27T10:21:13.897Z,53.13
2019-04-27T10:23:16.263Z,53.44
2019-04-27T10:25:23.932Z,52.87
2019-04-27T10:27:27.015Z,52.73
2019-04-27T10:29:29.094Z,54.21
2019-04-27T10:31:31.088Z,54.11
2019-04-27T10:33:33.113Z,53.99
2019-04-27T10:35:36.321Z,54.14
2019-04-27T10:37:38.889Z,54.91
2019-04-27T10:39:41.155Z,54.24
2019-04-27T10:41:43.171Z,54.78
2019-04-27T10:43:45.351Z,55.04
2019-04-27T10:45:47.426Z,54.45
2019-04-27T10:47:49.756Z,54.16
2019-04-27T10:49:51.964Z,53.26
2019-04-27T10:51:55.653Z,52.82
2019-04-27T10:53:57.836Z,52.49
2019-04-27T10:55:59.905Z,49.62
2019-04-27T10:58:01.874Z,51.66
2019-04-27T11:00:06.797Z,51.84
2019-04-27T11:02:09.872Z,52.63
2019-04-27T11:04:30.363Z,52.34
2019-04-27T11:06:35.880Z,51.45
2019-04-27T11:08:38.112Z,51.77
2019-04-27T11:10:40.166Z,51.13
2019-04-27T11:12:42.324Z,50.87
2019-04-27T11:14:44.282Z,50.52
2019-04-27T11:16:46.321Z,50.59
2019-04-27T11:18:48.584Z,53.72
2019-04-27T11:20:50.612Z,57.83
2019-04-27T11:23:06.657Z,56.45
2019-04-27T11:24:58.297Z,54.58
2019-04-27T11:27:00.401Z,54.50
2019-04-27T11:29:02.382Z,54.00
2019-04-27T11:31:05.622Z,55.41
2019-04-27T11:33:07.798Z,63.06
2019-04-27T11:35:21.649Z,67.68
2019-04-27T11:37:28.709Z,67.92
2019-04-27T11:39:30.954Z,68.10
2019-04-27T11:41:32.994Z,69.11
2019-04-27T11:43:36.163Z,69.66
2019-04-27T11:45:38.329Z,70.96
2019-04-27T11:47:40.380Z,69.68
2019-04-27T11:49:42.521Z,68.15
2019-04-27T11:51:46.631Z,68.73
2019-04-27T11:53:48.860Z,68.32
2019-04-27T11:55:50.844Z,68.00
2019-04-27T11:57:53.045Z,66.60
2019-04-27T11:59:56.287Z,64.65
2019-04-27T12:01:59.000Z,64.54
2019-04-27T12:04:01.846Z,61.20
2019-04-27T12:06:03.883Z,61.92
2019-04-27T12:08:06.733Z,60.29
2019-04-27T12:10:09.162Z,62.21
2019-04-27T12:12:18.193Z,61.36
2019-04-27T12:14:16.202Z,59.63
2019-04-27T12:16:18.569Z,59.93
2019-04-27T12:18:21.487Z,61.03
2019-04-27T12:20:25.631Z,64.99
2019-04-27T12:22:27.786Z,65.45
2019-04-27T12:24:29.803Z,65.96
2019-04-27T12:26:50.592Z,63.74
2019-04-27T12:28:53.249Z,64.82
2019-04-27T12:31:13.230Z,63.01
2019-04-27T12:33:15.226Z,58.45
2019-04-27T12:35:17.334Z,57.73
2019-04-27T12:37:19.646Z,59.14
2019-04-27T12:39:21.645Z,56.87
2019-04-27T12:41:24.094Z,57.27
2019-04-27T12:43:26.223Z,56.17
2019-04-27T12:45:28.415Z,55.46
2019-04-27T12:47:30.648Z,55.28
2019-04-27T12:49:33.037Z,54.54
2019-04-27T12:51:35.823Z,55.00
2019-04-27T12:53:55.959Z,54.77
2019-04-27T12:56:06.753Z,55.95
2019-04-27T12:58:16.962Z,56.26
2019-04-27T13:00:22.611Z,54.79
2019-04-27T13:02:28.122Z,54.41
2019-04-27T13:04:30.122Z,53.65
2019-04-27T13:06:32.271Z,54.32
2019-04-27T13:08:35.707Z,55.97
2019-04-27T13:10:38.108Z,54.96
2019-04-27T13:12:40.263Z,53.27
2019-04-27T13:14:42.598Z,53.64
2019-04-27T13:16:45.720Z,53.58
2019-04-27T13:18:48.636Z,52.59
2019-04-27T13:20:50.844Z,52.20
2019-04-27T13:22:52.867Z,51.98
2019-04-27T13:24:56.651Z,51.50
2019-04-27T13:26:59.950Z,51.28
2019-04-27T13:29:01.993Z,51.62
2019-04-27T13:31:06.749Z,51.73
2019-04-27T13:33:09.124Z,51.56
2019-04-27T13:35:11.541Z,52.00
2019-04-27T13:37:36.497Z,52.08
2019-04-27T13:39:38.717Z,51.90
2019-04-27T13:41:41.006Z,53.09
2019-04-27T13:43:43.035Z,51.30
2019-04-27T13:46:10.294Z,51.11
2019-04-27T13:48:30.981Z,51.45
2019-04-27T13:50:40.169Z,50.53
2019-04-27T13:52:42.844Z,51.45
2019-04-27T13:54:45.874Z,52.33
2019-04-27T13:56:48.105Z,53.25
2019-04-27T13:58:50.157Z,54.17
2019-04-27T14:00:52.572Z,53.40
2019-04-27T14:02:54.687Z,53.58
2019-04-27T14:04:56.742Z,53.59
2019-04-27T14:06:59.075Z,53.16
2019-04-27T14:09:04.450Z,53.02
2019-04-27T14:11:09.529Z,52.92
2019-04-27T14:13:12.144Z,52.80
2019-04-27T14:15:14.198Z,53.15
2019-04-27T14:17:19.377Z,52.33
2019-04-27T14:19:22.810Z,52.21
2019-04-27T14:21:24.877Z,52.72
2019-04-27T14:23:28.843Z,52.11
2019-04-27T14:25:30.838Z,52.88
2019-04-27T14:27:40.631Z,53.40
2019-04-27T14:29:43.040Z,53.74
2019-04-27T14:31:45.075Z,53.78
2019-04-27T14:33:48.423Z,53.83
2019-04-27T14:35:50.781Z,53.56
2019-04-27T14:37:53.158Z,54.58
2019-04-27T14:39:54.981Z,54.99
2019-04-27T14:41:58.049Z,56.70
2019-04-27T14:44:07.763Z,56.89
2019-04-27T14:46:04.294Z,57.89
2019-04-27T14:48:08.165Z,58.51
2019-04-27T14:50:10.502Z,59.00
2019-04-27T14:52:13.841Z,59.84
2019-04-27T14:54:17.119Z,60.35
2019-04-27T14:56:19.216Z,59.45
2019-04-27T14:58:21.506Z,59.17
2019-04-27T15:00:23.651Z,59.90
2019-04-27T15:02:25.763Z,59.81
2019-04-27T15:04:27.872Z,59.77
2019-04-27T15:06:32.491Z,60.34
2019-04-27T15:08:38.248Z,60.33
2019-04-27T15:10:38.590Z,59.92
2019-04-27T15:12:40.651Z,60.07
2019-04-27T15:14:42.697Z,61.47
2019-04-27T15:16:47.152Z,62.09
2019-04-27T15:18:53.811Z,61.16
2019-04-27T15:20:58.440Z,57.96
2019-04-27T15:23:01.078Z,56.64
2019-04-27T15:25:12.936Z,57.16
2019-04-27T15:27:11.600Z,57.27
2019-04-27T15:29:15.119Z,57.31
2019-04-27T15:31:27.035Z,56.06
2019-04-27T15:33:53.295Z,55.35
2019-04-27T15:36:02.068Z,55.64
2019-04-27T15:38:13.740Z,56.25
2019-04-27T15:40:33.342Z,56.16
2019-04-27T15:42:49.633Z,57.20
2019-04-27T15:44:49.936Z,57.29
2019-04-27T15:46:51.661Z,58.23
2019-04-27T15:48:54.365Z,57.75
2019-04-27T15:51:03.328Z,58.12
2019-04-27T15:53:09.464Z,57.61
2019-04-27T15:55:31.168Z,56.65
2019-04-27T15:57:13.869Z,58.39
2019-04-27T15:59:16.159Z,57.68
2019-04-27T16:01:18.194Z,57.50
2019-04-27T16:03:22.676Z,57.04
2019-04-27T16:05:28.683Z,57.45
2019-04-27T16:07:31.743Z,57.71
2019-04-27T16:09:32.605Z,57.71
2019-04-27T16:11:34.634Z,57.97
2019-04-27T16:13:38.271Z,57.68
2019-04-27T16:15:40.378Z,58.06
2019-04-27T16:17:50.910Z,58.20
2019-04-27T16:19:50.118Z,57.42
2019-04-27T16:21:54.284Z,56.40
2019-04-27T16:23:54.935Z,55.93
2019-04-27T16:25:58.174Z,55.96
2019-04-27T16:28:04.587Z,55.52
2019-04-27T16:30:11.591Z,55.29
2019-04-27T16:32:11.309Z,55.20
2019-04-27T16:34:13.043Z,56.09
2019-04-27T16:36:15.305Z,56.30
2019-04-27T16:38:38.717Z,57.41
2019-04-27T16:40:40.958Z,55.69
2019-04-27T16:42:45.250Z,55.60
2019-04-27T16:44:49.555Z,55.41
2019-04-27T16:46:51.248Z,55.30
2019-04-27T16:48:55.239Z,55.17
2019-04-27T16:50:59.261Z,55.31
2019-04-27T16:53:01.288Z,56.11
2019-04-27T16:55:03.576Z,56.64
2019-04-27T16:57:07.980Z,56.97
2019-04-27T16:59:36.446Z,59.27
2019-04-27T17:01:22.358Z,60.79
2019-04-27T17:03:24.611Z,62.62
2019-04-27T17:05:30.860Z,65.66
2019-04-27T17:07:37.367Z,69.43
2019-04-27T17:09:36.243Z,68.58
2019-04-27T17:11:43.806Z,69.38
2019-04-27T17:13:49.710Z,70.06
2019-04-27T17:16:24.733Z,69.41
2019-04-27T17:18:35.978Z,69.70
2019-04-27T17:20:39.604Z,69.45
2019-04-27T17:22:45.551Z,66.86
2019-04-27T17:24:49.177Z,65.03
2019-04-27T17:26:50.580Z,65.29
2019-04-27T17:28:59.277Z,65.38
2019-04-27T17:31:01.600Z,62.71
2019-04-27T17:33:15.100Z,63.25
2019-04-27T17:35:15.171Z,61.51
2019-04-27T17:37:16.866Z,60.75
2019-04-27T17:39:19.303Z,60.44
2019-04-27T17:41:22.830Z,59.35
2019-04-27T17:43:24.856Z,58.96
2019-04-27T17:45:30.502Z,59.63
2019-04-27T17:47:31.501Z,59.54
2019-04-27T17:49:33.692Z,59.83
2019-04-27T17:51:42.894Z,59.13
2019-04-27T17:53:43.003Z,59.17
2019-04-27T17:55:45.040Z,59.11
2019-04-27T17:57:49.073Z,59.74
2019-04-27T17:59:58.862Z,60.39
2019-04-27T18:02:00.691Z,59.80
2019-04-27T18:04:03.102Z,59.94
2019-04-27T18:06:05.227Z,60.01
2019-04-27T18:08:08.373Z,59.77
2019-04-27T18:10:13.433Z,58.96
2019-04-27T18:12:15.812Z,59.54
2019-04-27T18:14:19.435Z,59.38
2019-04-27T18:16:30.446Z,59.73
2019-04-27T18:18:41.002Z,59.23
2019-04-27T18:20:43.082Z,57.60
2019-04-27T18:22:49.238Z,57.88
2019-04-27T18:25:06.021Z,58.29
2019-04-27T18:27:13.467Z,57.94
2019-04-27T18:29:15.603Z,57.95
2019-04-27T18:31:17.963Z,58.05
2019-04-27T18:33:20.201Z,58.03
2019-04-27T18:35:26.221Z,57.57
2019-04-27T18:37:28.223Z,57.64
2019-04-27T18:39:30.388Z,57.87
2019-04-27T18:41:32.440Z,57.95
2019-04-27T18:43:34.626Z,58.18
2019-04-27T18:45:38.043Z,58.72
2019-04-27T18:47:43.181Z,58.81
2019-04-27T18:50:14.736Z,58.88
2019-04-27T18:52:35.635Z,59.01
2019-04-27T18:54:40.744Z,59.51
2019-04-27T18:56:41.811Z,60.08
2019-04-27T18:58:43.981Z,59.71
2019-04-27T19:00:48.338Z,64.83
2019-04-27T19:02:50.792Z,68.64
2019-04-27T19:04:52.869Z,69.34
2019-04-27T19:06:55.129Z,69.95
2019-04-27T19:08:58.985Z,68.41
2019-04-27T19:11:01.156Z,69.44
2019-04-27T19:13:03.353Z,69.10
2019-04-27T19:15:08.015Z,70.43
2019-04-27T19:17:10.682Z,70.77
2019-04-27T19:19:12.836Z,70.28
2019-04-27T19:21:14.925Z,69.84
2019-04-27T19:23:17.114Z,70.52
2019-04-27T19:25:33.297Z,69.63
2019-04-27T19:27:54.759Z,69.58
2019-04-27T19:30:01.160Z,68.89
2019-04-27T19:32:03.474Z,67.38
2019-04-27T19:34:06.875Z,65.95
2019-04-27T19:36:08.884Z,65.89
2019-04-27T19:38:11.039Z,65.28
2019-04-27T19:40:13.498Z,65.84
2019-04-27T19:42:15.065Z,66.37
2019-04-27T19:44:18.743Z,65.27
2019-04-27T19:46:21.336Z,65.88
2019-04-27T19:48:24.607Z,67.14
2019-04-27T19:50:28.568Z,64.84
2019-04-27T19:52:30.883Z,64.13
2019-04-27T19:54:33.075Z,65.14
2019-04-27T19:56:38.410Z,64.40
2019-04-27T19:58:45.221Z,64.93
2019-04-27T20:01:11.495Z,65.77
2019-04-27T20:03:08.730Z,64.90
2019-04-27T20:05:16.310Z,64.48
2019-04-27T20:07:18.206Z,64.27
2019-04-27T20:09:25.740Z,63.01
2019-04-27T20:11:27.758Z,62.56
2019-04-27T20:13:29.812Z,62.77
2019-04-27T20:15:31.840Z,63.58
2019-04-27T20:17:34.012Z,63.13
2019-04-27T20:19:36.298Z,63.15
2019-04-27T20:21:38.374Z,62.61
2019-04-27T20:23:40.880Z,62.73
2019-04-27T20:25:44.114Z,61.93
2019-04-27T20:27:49.548Z,62.44
2019-04-27T20:29:52.473Z,61.93
2019-04-27T20:31:54.516Z,62.08
2019-04-27T20:33:56.644Z,61.34
2019-04-27T20:35:58.650Z,61.21
2019-04-27T20:38:00.712Z,62.70
2019-04-27T20:40:03.511Z,60.22
2019-04-27T20:42:05.770Z,60.94
2019-04-27T20:44:08.254Z,60.40
2019-04-27T20:46:11.730Z,60.51
2019-04-27T20:48:14.185Z,60.43
2019-04-27T20:50:16.213Z,60.39
2019-04-27T20:52:37.910Z,60.56
2019-04-27T20:54:41.525Z,60.83
2019-04-27T20:56:44.109Z,61.74
2019-04-27T20:58:45.807Z,61.08
2019-04-27T21:00:49.259Z,61.91
2019-04-27T21:02:58.071Z,66.31
2019-04-27T21:05:21.086Z,70.78
2019-04-27T21:07:38.304Z,72.92
2019-04-27T21:09:41.414Z,75.58
2019-04-27T21:11:45.488Z,76.05
2019-04-27T21:13:47.661Z,76.59
2019-04-27T21:15:50.912Z,76.85
2019-04-27T21:17:53.271Z,77.45
2019-04-27T21:19:55.320Z,78.15
2019-04-27T21:21:57.573Z,78.82
2019-04-27T21:23:59.623Z,79.12
2019-04-27T21:26:02.280Z,78.99
2019-04-27T21:28:15.314Z,78.99
2019-04-27T21:30:08.665Z,78.37
2019-04-27T21:32:11.162Z,77.66
2019-04-27T21:34:13.328Z,78.41
2019-04-27T21:36:15.413Z,77.56
2019-04-27T21:38:17.792Z,78.04
2019-04-27T21:40:21.378Z,77.45
2019-04-27T21:42:23.627Z,78.33
2019-04-27T21:44:25.650Z,77.90
2019-04-27T21:46:27.780Z,78.08
2019-04-27T21:48:31.251Z,78.04
2019-04-27T21:50:33.730Z,77.98
2019-04-27T21:52:38.058Z,77.86
2019-04-27T21:54:41.202Z,78.17
2019-04-27T21:56:43.409Z,77.52
2019-04-27T21:58:45.541Z,76.21
2019-04-27T22:01:13.019Z,76.40
2019-04-27T22:03:16.213Z,76.84
2019-04-27T22:05:18.811Z,76.53
2019-04-27T22:07:21.606Z,76.59
2019-04-27T22:09:23.666Z,77.07
2019-04-27T22:11:25.894Z,77.28
2019-04-27T22:13:28.254Z,77.53
2019-04-27T22:15:31.410Z,77.20
2019-04-27T22:17:33.869Z,77.78
2019-04-27T22:19:36.937Z,77.09
2019-04-27T22:21:39.153Z,77.23
2019-04-27T22:24:01.055Z,76.63
2019-04-27T22:26:03.191Z,76.72
2019-04-27T22:28:05.505Z,77.01
2019-04-27T22:30:08.320Z,76.61
2019-04-27T22:32:10.761Z,76.30
2019-04-27T22:34:12.446Z,76.65
2019-04-27T22:36:14.704Z,76.89
2019-04-27T22:38:16.907Z,76.08
2019-04-27T22:40:41.943Z,76.28
2019-04-27T22:43:19.138Z,77.55
2019-04-27T22:45:26.971Z,75.62
2019-04-27T22:47:31.861Z,75.26
2019-04-27T22:49:34.354Z,73.68
2019-04-27T22:51:36.039Z,74.56
2019-04-27T22:53:38.152Z,74.38
2019-04-27T22:55:59.822Z,74.44
2019-04-27T22:58:08.481Z,73.14
2019-04-27T23:00:25.802Z,74.27
2019-04-27T23:02:52.150Z,74.35
2019-04-27T23:04:57.408Z,73.37
2019-04-27T23:07:00.611Z,73.56
2019-04-27T23:09:04.649Z,73.83
2019-04-27T23:11:10.824Z,74.20
2019-04-27T23:15:19.327Z,74.50
2019-04-27T23:17:37.502Z,75.24
2019-04-27T23:19:40.852Z,76.57
2019-04-27T23:21:43.501Z,78.89
2019-04-27T23:23:45.602Z,81.18
2019-04-27T23:25:51.211Z,81.86
2019-04-27T23:27:53.238Z,82.57
2019-04-27T23:29:55.236Z,82.56
2019-04-27T23:32:03.568Z,82.08
2019-04-27T23:34:05.573Z,81.44
2019-04-27T23:36:07.653Z,81.68
2019-04-27T23:38:17.583Z,81.99
2019-04-27T23:40:14.133Z,82.11
2019-04-27T23:42:16.142Z,82.07
2019-04-27T23:44:18.285Z,82.18
2019-04-27T23:46:21.479Z,81.93
2019-04-27T23:48:25.034Z,81.01
2019-04-27T23:50:31.289Z,81.53
2019-04-27T23:52:52.980Z,81.00
2019-04-27T23:54:55.198Z,81.64
2019-04-27T23:56:57.244Z,79.73
2019-04-27T23:58:59.702Z,80.22
